Fort Laramie, Wyoming
Current Conditions -  °F | °C
As of 1:35 PM on Saturday 25 Oct 2014 (Local Time) from KGUR Reporting Station
Clear Clear  
Wind Chill: 85°   Ceiling: Unl
Heat Index: 85°   Visibility: 10mi
Dew Point: 34°   Wind: 0mph
Humidity: 16%   Direction: NA
Pressure: 30.05"   Gusts: NA
Location:  42.21°N, 104.52°W
Report Text: KGUR 251935Z AUTO 00000KT 10SM CLR 29/01 A3005 RMK AO2 T02940009
Loading
Personal Weather Stations






























Interactive Weather Map
Tropical Storm Tracking
New forecast layout! Learn more

10-Day Weather Forecast

Advertisements
Track Severe Weather on mobile